sensor_id;sensor_type;location;lat;lon;timestamp;pressure;altitude;pressure_sealevel;temperature;humidity
34983;BME280;21187;50.976;13.720;2023-04-28T00:01:28;98491.63;;;8.78;39.37
34983;BME280;21187;50.976;13.720;2023-04-28T00:06:30;98494.13;;;8.83;39.86
34983;BME280;21187;50.976;13.720;2023-04-28T00:11:32;98482.00;;;8.90;39.23
34983;BME280;21187;50.976;13.720;2023-04-28T00:16:33;98481.47;;;8.96;38.90
34983;BME280;21187;50.976;13.720;2023-04-28T00:21:35;98477.53;;;8.94;39.56
34983;BME280;21187;50.976;13.720;2023-04-28T00:26:37;98472.00;;;8.90;39.09
34983;BME280;21187;50.976;13.720;2023-04-28T00:31:39;98469.63;;;8.89;39.19
34983;BME280;21187;50.976;13.720;2023-04-28T00:36:41;98458.16;;;8.92;39.24
34983;BME280;21187;50.976;13.720;2023-04-28T00:41:43;98449.59;;;8.90;39.49
34983;BME280;21187;50.976;13.720;2023-04-28T00:46:45;98442.63;;;8.89;38.66
34983;BME280;21187;50.976;13.720;2023-04-28T00:51:47;98426.28;;;8.85;39.12
34983;BME280;21187;50.976;13.720;2023-04-28T00:56:48;98423.91;;;8.83;39.29
34983;BME280;21187;50.976;13.720;2023-04-28T01:01:51;98414.88;;;8.79;39.16
34983;BME280;21187;50.976;13.720;2023-04-28T01:06:54;98405.75;;;8.72;39.37
34983;BME280;21187;50.976;13.720;2023-04-28T01:11:56;98406.94;;;8.62;39.74
34983;BME280;21187;50.976;13.720;2023-04-28T01:17:14;98405.09;;;8.54;39.59
34983;BME280;21187;50.976;13.720;2023-04-28T01:22:17;98397.66;;;8.51;39.84
34983;BME280;21187;50.976;13.720;2023-04-28T01:27:20;98400.84;;;8.53;39.63
34983;BME280;21187;50.976;13.720;2023-04-28T01:32:23;98401.81;;;8.48;39.73
34983;BME280;21187;50.976;13.720;2023-04-28T01:37:25;98386.38;;;8.48;39.71
34983;BME280;21187;50.976;13.720;2023-04-28T01:42:27;98385.75;;;8.52;39.98
34983;BME280;21187;50.976;13.720;2023-04-28T01:47:30;98379.78;;;8.46;39.88
34983;BME280;21187;50.976;13.720;2023-04-28T01:52:32;98375.78;;;8.43;40.15
34983;BME280;21187;50.976;13.720;2023-04-28T01:57:35;98374.41;;;8.37;40.48
34983;BME280;21187;50.976;13.720;2023-04-28T02:02:38;98371.91;;;8.32;40.25
34983;BME280;21187;50.976;13.720;2023-04-28T02:07:40;98366.50;;;8.32;40.22
34983;BME280;21187;50.976;13.720;2023-04-28T02:12:42;98365.72;;;8.31;40.63
34983;BME280;21187;50.976;13.720;2023-04-28T02:17:43;98357.03;;;8.26;40.89
34983;BME280;21187;50.976;13.720;2023-04-28T02:22:45;98357.03;;;8.26;40.54
34983;BME280;21187;50.976;13.720;2023-04-28T02:27:47;98351.63;;;8.26;40.60
34983;BME280;21187;50.976;13.720;2023-04-28T02:32:49;98344.66;;;8.25;40.54
34983;BME280;21187;50.976;13.720;2023-04-28T02:37:51;98350.50;;;8.27;40.38
34983;BME280;21187;50.976;13.720;2023-04-28T02:42:53;98338.59;;;8.28;40.82
34983;BME280;21187;50.976;13.720;2023-04-28T02:47:55;98335.44;;;8.26;40.64
34983;BME280;21187;50.976;13.720;2023-04-28T02:52:57;98330.94;;;8.30;40.66
34983;BME280;21187;50.976;13.720;2023-04-28T02:57:59;98326.03;;;8.32;41.08
34983;BME280;21187;50.976;13.720;2023-04-28T03:03:01;98329.19;;;8.34;41.04
34983;BME280;21187;50.976;13.720;2023-04-28T03:08:03;98311.88;;;8.35;40.36
34983;BME280;21187;50.976;13.720;2023-04-28T03:13:05;98318.84;;;8.36;40.46
34983;BME280;21187;50.976;13.720;2023-04-28T03:18:08;98298.84;;;8.37;40.64
34983;BME280;21187;50.976;13.720;2023-04-28T03:23:10;98292.53;;;8.33;40.82
34983;BME280;21187;50.976;13.720;2023-04-28T03:28:12;98290.47;;;8.30;40.60
34983;BME280;21187;50.976;13.720;2023-04-28T03:33:14;98286.09;;;8.25;40.86
34983;BME280;21187;50.976;13.720;2023-04-28T03:38:16;98288.47;;;8.27;41.43
34983;BME280;21187;50.976;13.720;2023-04-28T03:43:18;98285.69;;;8.36;41.21
34983;BME280;21187;50.976;13.720;2023-04-28T03:48:39;98288.81;;;8.38;40.97
34983;BME280;21187;50.976;13.720;2023-04-28T03:53:41;98285.16;;;8.42;40.94
34983;BME280;21187;50.976;13.720;2023-04-28T03:58:44;98289.91;;;8.45;40.92
34983;BME280;21187;50.976;13.720;2023-04-28T04:03:46;98290.03;;;8.49;41.00
34983;BME280;21187;50.976;13.720;2023-04-28T04:08:48;98271.47;;;8.47;41.06
34983;BME280;21187;50.976;13.720;2023-04-28T04:13:50;98273.97;;;8.53;40.69
34983;BME280;21187;50.976;13.720;2023-04-28T04:18:54;98266.66;;;8.53;41.02
34983;BME280;21187;50.976;13.720;2023-04-28T04:24:15;98256.84;;;8.48;41.26
34983;BME280;21187;50.976;13.720;2023-04-28T04:29:17;98241.88;;;8.51;41.13
34983;BME280;21187;50.976;13.720;2023-04-28T04:34:19;98239.09;;;8.47;41.84
34983;BME280;21187;50.976;13.720;2023-04-28T04:39:21;98250.31;;;8.49;41.50
34983;BME280;21187;50.976;13.720;2023-04-28T04:44:26;98239.31;;;8.55;41.67
34983;BME280;21187;50.976;13.720;2023-04-28T04:49:28;98235.50;;;8.56;41.36
34983;BME280;21187;50.976;13.720;2023-04-28T04:54:30;98244.72;;;8.55;41.92
34983;BME280;21187;50.976;13.720;2023-04-28T04:59:32;98241.59;;;8.53;41.97
34983;BME280;21187;50.976;13.720;2023-04-28T05:04:40;98236.63;;;8.55;42.13
34983;BME280;21187;50.976;13.720;2023-04-28T05:09:44;98232.81;;;8.56;42.46
34983;BME280;21187;50.976;13.720;2023-04-28T05:14:46;98222.69;;;8.53;42.75
34983;BME280;21187;50.976;13.720;2023-04-28T05:19:49;98215.03;;;8.55;43.26
34983;BME280;21187;50.976;13.720;2023-04-28T05:24:52;98217.72;;;8.55;43.01
34983;BME280;21187;50.976;13.720;2023-04-28T05:29:54;98211.00;;;8.61;43.27
34983;BME280;21187;50.976;13.720;2023-04-28T05:34:56;98199.28;;;8.69;43.17
34983;BME280;21187;50.976;13.720;2023-04-28T05:39:57;98201.09;;;8.77;43.07
34983;BME280;21187;50.976;13.720;2023-04-28T05:44:59;98196.63;;;8.94;43.33
34983;BME280;21187;50.976;13.720;2023-04-28T05:50:02;98191.22;;;9.19;42.73
34983;BME280;21187;50.976;13.720;2023-04-28T05:55:04;98184.00;;;9.23;43.35
34983;BME280;21187;50.976;13.720;2023-04-28T06:00:08;98184.06;;;9.39;42.94
34983;BME280;21187;50.976;13.720;2023-04-28T06:05:12;98196.97;;;9.58;43.19
34983;BME280;21187;50.976;13.720;2023-04-28T06:10:16;98200.06;;;9.85;43.41
34983;BME280;21187;50.976;13.720;2023-04-28T06:15:18;98203.78;;;10.08;43.40
34983;BME280;21187;50.976;13.720;2023-04-28T06:20:20;98208.78;;;10.22;43.19
34983;BME280;21187;50.976;13.720;2023-04-28T06:25:22;98200.72;;;10.38;42.91
34983;BME280;21187;50.976;13.720;2023-04-28T06:30:24;98189.59;;;10.56;43.32
34983;BME280;21187;50.976;13.720;2023-04-28T06:35:28;98188.00;;;10.71;43.20
34983;BME280;21187;50.976;13.720;2023-04-28T06:40:30;98180.56;;;10.84;43.30
34983;BME280;21187;50.976;13.720;2023-04-28T06:45:34;98183.94;;;10.96;43.15
34983;BME280;21187;50.976;13.720;2023-04-28T06:50:36;98192.34;;;11.07;43.43
34983;BME280;21187;50.976;13.720;2023-04-28T06:55:40;98183.38;;;11.23;43.43
34983;BME280;21187;50.976;13.720;2023-04-28T07:00:43;98186.56;;;11.44;43.21
34983;BME280;21187;50.976;13.720;2023-04-28T07:05:45;98169.53;;;11.63;43.02
34983;BME280;21187;50.976;13.720;2023-04-28T07:10:47;98156.72;;;11.83;43.22
34983;BME280;21187;50.976;13.720;2023-04-28T07:15:49;98158.16;;;12.17;43.15
34983;BME280;21187;50.976;13.720;2023-04-28T07:20:51;98164.22;;;12.53;42.98
34983;BME280;21187;50.976;13.720;2023-04-28T07:25:53;98152.31;;;12.88;42.87
34983;BME280;21187;50.976;13.720;2023-04-28T07:30:55;98150.34;;;13.11;42.87
34983;BME280;21187;50.976;13.720;2023-04-28T07:35:58;98145.31;;;13.40;42.63
34983;BME280;21187;50.976;13.720;2023-04-28T07:41:00;98146.34;;;13.59;42.50
34983;BME280;21187;50.976;13.720;2023-04-28T07:46:02;98134.91;;;13.80;42.30
34983;BME280;21187;50.976;13.720;2023-04-28T07:51:04;98136.69;;;14.03;41.98
34983;BME280;21187;50.976;13.720;2023-04-28T07:56:06;98133.06;;;14.25;41.87
34983;BME280;21187;50.976;13.720;2023-04-28T08:01:08;98127.00;;;14.46;41.24
34983;BME280;21187;50.976;13.720;2023-04-28T08:06:09;98119.34;;;14.63;41.04
34983;BME280;21187;50.976;13.720;2023-04-28T08:11:11;98114.88;;;14.89;40.84
34983;BME280;21187;50.976;13.720;2023-04-28T08:16:14;98113.50;;;15.24;40.42
34983;BME280;21187;50.976;13.720;2023-04-28T08:21:16;98116.00;;;15.58;40.23
34983;BME280;21187;50.976;13.720;2023-04-28T08:26:18;98105.22;;;16.01;39.55
34983;BME280;21187;50.976;13.720;2023-04-28T08:31:20;98113.06;;;16.32;39.08
34983;BME280;21187;50.976;13.720;2023-04-28T08:36:22;98112.69;;;16.55;38.88
34983;BME280;21187;50.976;13.720;2023-04-28T08:41:25;98112.31;;;16.67;38.53
34983;BME280;21187;50.976;13.720;2023-04-28T08:46:30;98088.03;;;16.84;38.48
34983;BME280;21187;50.976;13.720;2023-04-28T08:51:39;98089.56;;;17.06;37.95
34983;BME280;21187;50.976;13.720;2023-04-28T08:56:44;98084.06;;;17.28;38.28
34983;BME280;21187;50.976;13.720;2023-04-28T09:01:49;98080.84;;;17.48;37.84
34983;BME280;21187;50.976;13.720;2023-04-28T09:06:51;98087.00;;;17.70;36.83
34983;BME280;21187;50.976;13.720;2023-04-28T09:12:00;98083.75;;;17.89;36.17
34983;BME280;21187;50.976;13.720;2023-04-28T09:17:13;98063.41;;;17.94;36.14
34983;BME280;21187;50.976;13.720;2023-04-28T09:22:15;98081.34;;;18.02;35.57
34983;BME280;21187;50.976;13.720;2023-04-28T09:27:27;98075.84;;;18.09;35.68
34983;BME280;21187;50.976;13.720;2023-04-28T09:32:29;98077.78;;;18.09;35.66
34983;BME280;21187;50.976;13.720;2023-04-28T09:37:32;98070.72;;;18.11;35.73
34983;BME280;21187;50.976;13.720;2023-04-28T09:42:42;98063.25;;;18.16;35.25
34983;BME280;21187;50.976;13.720;2023-04-28T09:54:55;98062.47;;;18.15;34.88
34983;BME280;21187;50.976;13.720;2023-04-28T09:59:58;98069.97;;;18.07;33.65
34983;BME280;21187;50.976;13.720;2023-04-28T10:05:00;98058.69;;;17.98;33.02
34983;BME280;21187;50.976;13.720;2023-04-28T10:10:03;98057.94;;;17.94;33.12
34983;BME280;21187;50.976;13.720;2023-04-28T10:15:06;98065.38;;;17.90;33.15
34983;BME280;21187;50.976;13.720;2023-04-28T10:20:10;98076.00;;;17.80;33.65
34983;BME280;21187;50.976;13.720;2023-04-28T10:25:30;98080.78;;;17.62;34.23
34983;BME280;21187;50.976;13.720;2023-04-28T10:30:33;98081.66;;;17.41;34.87
34983;BME280;21187;50.976;13.720;2023-04-28T10:40:42;98086.06;;;17.02;36.25
34983;BME280;21187;50.976;13.720;2023-04-28T10:56:05;98096.69;;;16.35;38.76
34983;BME280;21187;50.976;13.720;2023-04-28T11:06:35;98100.59;;;16.23;39.62
34983;BME280;21187;50.976;13.720;2023-04-28T11:11:38;98088.84;;;16.19;40.21
34983;BME280;21187;50.976;13.720;2023-04-28T11:21:54;98100.88;;;15.78;39.50
34983;BME280;21187;50.976;13.720;2023-04-28T11:26:57;98114.00;;;15.47;39.95
34983;BME280;21187;50.976;13.720;2023-04-28T11:32:00;98124.03;;;15.25;40.80
34983;BME280;21187;50.976;13.720;2023-04-28T11:37:02;98120.47;;;15.10;42.04
34983;BME280;21187;50.976;13.720;2023-04-28T11:42:10;98107.91;;;14.95;42.87
34983;BME280;21187;50.976;13.720;2023-04-28T11:47:12;98108.69;;;14.95;42.93
34983;BME280;21187;50.976;13.720;2023-04-28T11:52:14;98118.09;;;15.05;43.10
34983;BME280;21187;50.976;13.720;2023-04-28T11:57:17;98102.97;;;15.15;43.03
34983;BME280;21187;50.976;13.720;2023-04-28T12:02:26;98100.31;;;15.33;43.08
34983;BME280;21187;50.976;13.720;2023-04-28T12:07:39;98084.34;;;15.42;43.16
34983;BME280;21187;50.976;13.720;2023-04-28T12:12:43;98084.78;;;15.52;43.40
34983;BME280;21187;50.976;13.720;2023-04-28T12:17:53;98086.41;;;15.67;42.55
34983;BME280;21187;50.976;13.720;2023-04-28T12:22:55;98080.94;;;15.74;43.24
34983;BME280;21187;50.976;13.720;2023-04-28T12:28:06;98063.81;;;15.77;43.21
34983;BME280;21187;50.976;13.720;2023-04-28T12:33:25;98061.44;;;15.79;43.28
34983;BME280;21187;50.976;13.720;2023-04-28T12:38:28;98070.84;;;15.82;43.53
34983;BME280;21187;50.976;13.720;2023-04-28T12:43:30;98074.72;;;15.77;44.17
34983;BME280;21187;50.976;13.720;2023-04-28T12:48:32;98073.13;;;15.66;44.25
34983;BME280;21187;50.976;13.720;2023-04-28T12:53:35;98071.56;;;15.57;44.67
34983;BME280;21187;50.976;13.720;2023-04-28T12:58:37;98070.75;;;15.53;44.85
34983;BME280;21187;50.976;13.720;2023-04-28T13:03:39;98059.06;;;15.53;44.97
34983;BME280;21187;50.976;13.720;2023-04-28T13:08:41;98053.56;;;15.49;45.08
34983;BME280;21187;50.976;13.720;2023-04-28T13:13:43;98045.81;;;15.51;44.92
34983;BME280;21187;50.976;13.720;2023-04-28T13:18:45;98038.75;;;15.46;45.16
34983;BME280;21187;50.976;13.720;2023-04-28T13:23:49;98035.66;;;15.44;45.18
34983;BME280;21187;50.976;13.720;2023-04-28T13:28:51;98030.19;;;15.44;45.44
34983;BME280;21187;50.976;13.720;2023-04-28T13:33:53;98022.41;;;15.43;45.61
34983;BME280;21187;50.976;13.720;2023-04-28T13:38:55;98007.56;;;15.40;45.98
34983;BME280;21187;50.976;13.720;2023-04-28T13:43:57;98007.56;;;15.37;46.02
34983;BME280;21187;50.976;13.720;2023-04-28T13:48:59;98007.53;;;15.33;46.07
34983;BME280;21187;50.976;13.720;2023-04-28T13:54:01;97996.63;;;15.26;46.28
34983;BME280;21187;50.976;13.720;2023-04-28T13:59:08;97993.47;;;15.17;46.17
34983;BME280;21187;50.976;13.720;2023-04-28T14:04:10;97986.03;;;15.13;46.51
34983;BME280;21187;50.976;13.720;2023-04-28T14:09:12;97985.69;;;15.15;46.35
34983;BME280;21187;50.976;13.720;2023-04-28T14:14:14;97992.69;;;15.12;46.58
34983;BME280;21187;50.976;13.720;2023-04-28T14:19:16;97976.69;;;15.14;46.54
34983;BME280;21187;50.976;13.720;2023-04-28T14:24:19;97971.66;;;15.17;46.71
34983;BME280;21187;50.976;13.720;2023-04-28T14:29:21;97973.22;;;15.25;46.60
34983;BME280;21187;50.976;13.720;2023-04-28T14:34:22;97967.78;;;15.32;46.49
34983;BME280;21187;50.976;13.720;2023-04-28T14:39:25;97955.31;;;15.31;46.48
34983;BME280;21187;50.976;13.720;2023-04-28T14:44:27;97951.41;;;15.36;46.06
34983;BME280;21187;50.976;13.720;2023-04-28T14:49:29;97946.00;;;15.43;45.95
34983;BME280;21187;50.976;13.720;2023-04-28T14:54:31;97941.69;;;15.45;45.62
34983;BME280;21187;50.976;13.720;2023-04-28T14:59:33;97935.06;;;15.54;45.63
34983;BME280;21187;50.976;13.720;2023-04-28T15:04:36;97925.34;;;15.60;45.44
34983;BME280;21187;50.976;13.720;2023-04-28T15:09:39;97926.88;;;15.61;45.29
34983;BME280;21187;50.976;13.720;2023-04-28T15:14:41;97920.63;;;15.68;45.41
34983;BME280;21187;50.976;13.720;2023-04-28T15:19:43;97927.69;;;15.72;45.37
34983;BME280;21187;50.976;13.720;2023-04-28T15:24:45;97922.22;;;15.72;45.36
34983;BME280;21187;50.976;13.720;2023-04-28T15:29:47;97922.63;;;15.71;45.33
34983;BME280;21187;50.976;13.720;2023-04-28T15:34:49;97920.66;;;15.71;45.20
34983;BME280;21187;50.976;13.720;2023-04-28T15:39:51;97921.81;;;15.74;45.42
34983;BME280;21187;50.976;13.720;2023-04-28T15:44:53;97914.00;;;15.69;45.00
34983;BME280;21187;50.976;13.720;2023-04-28T15:49:56;97896.09;;;15.60;45.20
34983;BME280;21187;50.976;13.720;2023-04-28T15:55:01;97896.06;;;15.57;45.04
34983;BME280;21187;50.976;13.720;2023-04-28T16:00:04;97893.72;;;15.52;45.08
34983;BME280;21187;50.976;13.720;2023-04-28T16:05:10;97892.97;;;15.47;44.87
34983;BME280;21187;50.976;13.720;2023-04-28T16:10:14;97881.25;;;15.43;44.78
34983;BME280;21187;50.976;13.720;2023-04-28T16:15:16;97885.19;;;15.39;44.73
34983;BME280;21187;50.976;13.720;2023-04-28T16:20:18;97878.94;;;15.31;44.66
34983;BME280;21187;50.976;13.720;2023-04-28T16:25:20;97885.91;;;15.32;44.72
34983;BME280;21187;50.976;13.720;2023-04-28T16:30:22;97882.03;;;15.26;44.96
34983;BME280;21187;50.976;13.720;2023-04-28T16:35:24;97875.78;;;15.22;45.00
34983;BME280;21187;50.976;13.720;2023-04-28T16:40:27;97875.03;;;15.18;44.96
34983;BME280;21187;50.976;13.720;2023-04-28T16:45:29;97876.56;;;15.19;45.23
34983;BME280;21187;50.976;13.720;2023-04-28T16:50:31;97860.97;;;15.16;44.81
34983;BME280;21187;50.976;13.720;2023-04-28T16:55:34;97846.16;;;15.09;45.29
34983;BME280;21187;50.976;13.720;2023-04-28T17:00:37;97855.50;;;15.05;45.30
34983;BME280;21187;50.976;13.720;2023-04-28T17:05:40;97853.16;;;15.07;45.75
34983;BME280;21187;50.976;13.720;2023-04-28T17:10:42;97845.78;;;15.07;45.60
34983;BME280;21187;50.976;13.720;2023-04-28T17:15:43;97839.13;;;15.01;45.53
34983;BME280;21187;50.976;13.720;2023-04-28T17:20:45;97837.56;;;15.00;45.74
34983;BME280;21187;50.976;13.720;2023-04-28T17:25:48;97837.56;;;14.93;45.81
34983;BME280;21187;50.976;13.720;2023-04-28T17:30:50;97830.56;;;14.92;46.27
34983;BME280;21187;50.976;13.720;2023-04-28T17:35:53;97842.25;;;14.96;46.16
34983;BME280;21187;50.976;13.720;2023-04-28T17:40:55;97842.22;;;14.92;46.40
34983;BME280;21187;50.976;13.720;2023-04-28T17:45:57;97841.06;;;14.93;46.36
34983;BME280;21187;50.976;13.720;2023-04-28T17:50:59;97839.50;;;14.85;46.51
34983;BME280;21187;50.976;13.720;2023-04-28T17:56:01;97830.56;;;14.85;46.15
34983;BME280;21187;50.976;13.720;2023-04-28T18:01:05;97827.03;;;14.84;46.72
34983;BME280;21187;50.976;13.720;2023-04-28T18:06:07;97844.56;;;14.79;46.80
34983;BME280;21187;50.976;13.720;2023-04-28T18:11:09;97837.53;;;14.78;46.89
34983;BME280;21187;50.976;13.720;2023-04-28T18:16:11;97835.97;;;14.77;47.06
34983;BME280;21187;50.976;13.720;2023-04-28T18:21:15;97834.41;;;14.76;46.75
34983;BME280;21187;50.976;13.720;2023-04-28T18:26:17;97841.41;;;14.77;46.90
34983;BME280;21187;50.976;13.720;2023-04-28T18:31:19;97842.59;;;14.76;47.26
34983;BME280;21187;50.976;13.720;2023-04-28T18:36:21;97834.78;;;14.75;47.12
34983;BME280;21187;50.976;13.720;2023-04-28T18:41:24;97835.56;;;14.75;47.04
34983;BME280;21187;50.976;13.720;2023-04-28T18:46:26;97826.59;;;14.71;47.35
34983;BME280;21187;50.976;13.720;2023-04-28T18:51:29;97831.66;;;14.69;47.32
34983;BME280;21187;50.976;13.720;2023-04-28T18:56:31;97827.38;;;14.75;47.08
34983;BME280;21187;50.976;13.720;2023-04-28T19:01:33;97835.97;;;14.70;47.51
34983;BME280;21187;50.976;13.720;2023-04-28T19:06:35;97840.25;;;14.68;47.39
34983;BME280;21187;50.976;13.720;2023-04-28T19:11:37;97849.59;;;14.70;47.60
34983;BME280;21187;50.976;13.720;2023-04-28T19:16:39;97851.53;;;14.70;47.91
34983;BME280;21187;50.976;13.720;2023-04-28T19:21:42;97839.06;;;14.72;47.80
34983;BME280;21187;50.976;13.720;2023-04-28T19:26:45;97843.72;;;14.68;48.42
34983;BME280;21187;50.976;13.720;2023-04-28T19:31:46;97838.28;;;14.68;48.35
34983;BME280;21187;50.976;13.720;2023-04-28T19:36:49;97842.94;;;14.71;48.54
34983;BME280;21187;50.976;13.720;2023-04-28T19:41:51;97845.31;;;14.76;48.42
34983;BME280;21187;50.976;13.720;2023-04-28T19:46:55;97836.00;;;14.85;48.01
34983;BME280;21187;50.976;13.720;2023-04-28T19:51:56;97832.47;;;14.84;47.97
34983;BME280;21187;50.976;13.720;2023-04-28T19:56:58;97827.81;;;14.88;48.33
34983;BME280;21187;50.976;13.720;2023-04-28T20:02:02;97822.75;;;14.87;48.22
34983;BME280;21187;50.976;13.720;2023-04-28T20:07:08;97827.00;;;14.80;48.60
34983;BME280;21187;50.976;13.720;2023-04-28T20:12:11;97828.94;;;14.69;49.25
34983;BME280;21187;50.976;13.720;2023-04-28T20:17:14;97807.06;;;14.62;49.41
34983;BME280;21187;50.976;13.720;2023-04-28T20:22:16;97812.91;;;14.57;49.70
34983;BME280;21187;50.976;13.720;2023-04-28T20:27:18;97811.75;;;14.58;49.97
34983;BME280;21187;50.976;13.720;2023-04-28T20:32:22;97812.56;;;14.66;49.43
34983;BME280;21187;50.976;13.720;2023-04-28T20:37:24;97802.47;;;14.73;49.17
34983;BME280;21187;50.976;13.720;2023-04-28T20:42:27;97797.03;;;14.73;49.34
34983;BME280;21187;50.976;13.720;2023-04-28T20:47:29;97793.09;;;14.67;49.30
34983;BME280;21187;50.976;13.720;2023-04-28T20:52:31;97785.28;;;14.62;49.59
34983;BME280;21187;50.976;13.720;2023-04-28T20:57:34;97791.50;;;14.52;49.36
34983;BME280;21187;50.976;13.720;2023-04-28T21:02:37;97788.75;;;14.44;49.22
34983;BME280;21187;50.976;13.720;2023-04-28T21:07:42;97785.66;;;14.50;49.34
34983;BME280;21187;50.976;13.720;2023-04-28T21:12:44;97780.59;;;14.52;49.24
34983;BME280;21187;50.976;13.720;2023-04-28T21:17:47;97788.38;;;14.50;49.00
34983;BME280;21187;50.976;13.720;2023-04-28T21:22:48;97786.78;;;14.45;48.83
34983;BME280;21187;50.976;13.720;2023-04-28T21:27:50;97785.22;;;14.40;49.20
34983;BME280;21187;50.976;13.720;2023-04-28T21:32:53;97781.72;;;14.36;49.26
34983;BME280;21187;50.976;13.720;2023-04-28T21:37:56;97772.75;;;14.32;48.99
34983;BME280;21187;50.976;13.720;2023-04-28T21:42:58;97773.13;;;14.27;49.11
34983;BME280;21187;50.976;13.720;2023-04-28T21:47:59;97770.41;;;14.27;49.17
34983;BME280;21187;50.976;13.720;2023-04-28T21:53:02;97764.53;;;14.25;49.49
34983;BME280;21187;50.976;13.720;2023-04-28T21:58:04;97768.84;;;14.33;49.65
34983;BME280;21187;50.976;13.720;2023-04-28T22:03:06;97779.75;;;14.33;49.59
34983;BME280;21187;50.976;13.720;2023-04-28T22:08:08;97775.06;;;14.30;49.80
34983;BME280;21187;50.976;13.720;2023-04-28T22:13:11;97768.47;;;14.31;49.63
34983;BME280;21187;50.976;13.720;2023-04-28T22:18:13;97768.47;;;14.31;49.83
34983;BME280;21187;50.976;13.720;2023-04-28T22:23:15;97745.53;;;14.32;49.89
34983;BME280;21187;50.976;13.720;2023-04-28T22:28:17;97733.06;;;14.31;49.85
34983;BME280;21187;50.976;13.720;2023-04-28T22:33:19;97741.59;;;14.33;50.18
34983;BME280;21187;50.976;13.720;2023-04-28T22:38:20;97744.38;;;14.40;50.11
34983;BME280;21187;50.976;13.720;2023-04-28T22:43:22;97751.75;;;14.43;50.26
34983;BME280;21187;50.976;13.720;2023-04-28T22:48:24;97767.72;;;14.45;50.12
34983;BME280;21187;50.976;13.720;2023-04-28T22:53:26;97775.13;;;14.48;50.46
34983;BME280;21187;50.976;13.720;2023-04-28T22:58:28;97768.88;;;14.47;50.58
34983;BME280;21187;50.976;13.720;2023-04-28T23:03:30;97761.13;;;14.50;50.55
34983;BME280;21187;50.976;13.720;2023-04-28T23:08:32;97748.69;;;14.52;50.83
34983;BME280;21187;50.976;13.720;2023-04-28T23:13:35;97751.00;;;14.50;50.75
34983;BME280;21187;50.976;13.720;2023-04-28T23:18:37;97736.19;;;14.40;51.19
34983;BME280;21187;50.976;13.720;2023-04-28T23:23:40;97731.88;;;14.36;51.72
34983;BME280;21187;50.976;13.720;2023-04-28T23:28:41;97721.38;;;14.34;51.49
34983;BME280;21187;50.976;13.720;2023-04-28T23:33:43;97721.38;;;14.27;51.26
34983;BME280;21187;50.976;13.720;2023-04-28T23:38:45;97712.38;;;14.15;51.74
34983;BME280;21187;50.976;13.720;2023-04-28T23:43:47;97724.41;;;14.04;52.03
34983;BME280;21187;50.976;13.720;2023-04-28T23:48:49;97729.44;;;13.98;52.23
34983;BME280;21187;50.976;13.720;2023-04-28T23:53:51;97731.38;;;13.94;52.18
34983;BME280;21187;50.976;13.720;2023-04-28T23:58:53;97723.19;;;13.83;52.81
